Portada
METAR-TAF:

METAR-TAF

Aeropuertos :

Aeropuerto de Liubliana

Liubliana, Eslovenia

latitud: 46-13N, longitud: 014-29E, altitud: 385 m

Observación

El informe se hizo hace 37 minutos, a las 10:30 UTC
Viento 6 kt del sur-sureste, variando entre este-sureste y sur
Temperatura 14°C
Humedad 38%
Presión 1022 hPa
Visibilidad 10 km o más
Escasas nubes a una altura de 6000 ft
Nubes dispersas a una altura de 7000 ft

METAR: LJLJ 041030Z 15006KT 110V190 9999 FEW060 SCT070 14/M00 Q1022 NOSIG

Hora: 13:07 (11:07 UTC)

Pronóstico

El informe se hizo hace 6 horas y 7 minutos, a las 05:00 UTC
Pronóstico válido del 04 a las 06 UTC al 05 a las 06 UTC
Viento 2 kt con dirección variable
Visibilidad 10 km o más
Escasas nubes a una altura de 7500 ft
Temporalmente
del 04 a las 12 UTC al 04 a las 17 UTC
Viento 10 kt del este-sureste

TAF: LJLJ 040500Z 0406/0506 VRB02KT 9999 FEW075 TEMPO 0412/0417 12010KT

Observaciones y pronósticos meteorológicos de más de 4000 aeropuertos (mensajes METAR y TAF).

Los puntos amarillos y rojos representan las estaciones disponibles.

Ponga el ratón en el punto deseado para ver el nombre de la estación.

Haga clic para ver las observaciones y los pronósticos meteorológicos.

Para cambiar el mapa : haga clic en los botones verdes con una cruz de color negro para hacer un zoom, en el botón verde con un guión para alejar o en las flechas verdes para mapas adyacentes.


METAR-TAF: